sensor_id;sensor_type;location;lat;lon;timestamp;P1;durP1;ratioP1;P2;durP2;ratioP2
20038;SDS011;21737;42.868;25.320;2023-05-14T00:00:06;4.30;;;3.10;;
20038;SDS011;21737;42.868;25.320;2023-05-14T00:03:09;4.30;;;2.90;;
20038;SDS011;21737;42.868;25.320;2023-05-14T00:06:11;4.33;;;2.73;;
20038;SDS011;21737;42.868;25.320;2023-05-14T00:09:13;6.50;;;2.87;;
20038;SDS011;21737;42.868;25.320;2023-05-14T00:12:14;4.57;;;2.97;;
20038;SDS011;21737;42.868;25.320;2023-05-14T00:15:16;3.30;;;2.40;;
20038;SDS011;21737;42.868;25.320;2023-05-14T00:18:18;6.30;;;3.00;;
20038;SDS011;21737;42.868;25.320;2023-05-14T00:21:19;4.17;;;2.43;;
20038;SDS011;21737;42.868;25.320;2023-05-14T00:24:21;3.57;;;2.33;;
20038;SDS011;21737;42.868;25.320;2023-05-14T00:27:23;3.73;;;2.30;;
20038;SDS011;21737;42.868;25.320;2023-05-14T00:30:24;5.53;;;2.43;;
20038;SDS011;21737;42.868;25.320;2023-05-14T00:33:27;5.47;;;2.40;;
20038;SDS011;21737;42.868;25.320;2023-05-14T00:36:28;3.30;;;2.60;;
20038;SDS011;21737;42.868;25.320;2023-05-14T00:39:30;6.07;;;2.70;;
20038;SDS011;21737;42.868;25.320;2023-05-14T00:42:32;5.20;;;3.03;;
20038;SDS011;21737;42.868;25.320;2023-05-14T00:45:33;4.93;;;2.83;;
20038;SDS011;21737;42.868;25.320;2023-05-14T00:48:35;5.73;;;3.30;;
20038;SDS011;21737;42.868;25.320;2023-05-14T00:51:36;3.57;;;2.87;;
20038;SDS011;21737;42.868;25.320;2023-05-14T00:54:38;5.20;;;2.80;;
20038;SDS011;21737;42.868;25.320;2023-05-14T00:57:40;4.80;;;2.70;;
20038;SDS011;21737;42.868;25.320;2023-05-14T01:00:42;4.10;;;2.60;;
20038;SDS011;21737;42.868;25.320;2023-05-14T01:03:44;4.00;;;3.10;;
20038;SDS011;21737;42.868;25.320;2023-05-14T01:06:56;4.23;;;2.60;;
20038;SDS011;21737;42.868;25.320;2023-05-14T01:10:06;4.00;;;2.90;;
20038;SDS011;21737;42.868;25.320;2023-05-14T01:13:12;5.13;;;3.00;;
20038;SDS011;21737;42.868;25.320;2023-05-14T01:16:15;8.17;;;3.30;;
20038;SDS011;21737;42.868;25.320;2023-05-14T01:19:33;7.80;;;3.40;;
20038;SDS011;21737;42.868;25.320;2023-05-14T01:22:36;7.10;;;3.10;;
20038;SDS011;21737;42.868;25.320;2023-05-14T01:25:38;6.07;;;3.20;;
20038;SDS011;21737;42.868;25.320;2023-05-14T01:28:39;4.27;;;3.30;;
20038;SDS011;21737;42.868;25.320;2023-05-14T01:31:42;5.27;;;3.90;;
20038;SDS011;21737;42.868;25.320;2023-05-14T01:34:44;8.93;;;3.90;;
20038;SDS011;21737;42.868;25.320;2023-05-14T01:37:47;6.40;;;3.77;;
20038;SDS011;21737;42.868;25.320;2023-05-14T01:40:50;5.03;;;3.97;;
20038;SDS011;21737;42.868;25.320;2023-05-14T01:43:53;4.70;;;3.63;;
20038;SDS011;21737;42.868;25.320;2023-05-14T01:46:54;5.90;;;3.70;;
20038;SDS011;21737;42.868;25.320;2023-05-14T01:49:56;5.87;;;3.70;;
20038;SDS011;21737;42.868;25.320;2023-05-14T01:52:58;6.73;;;4.30;;
20038;SDS011;21737;42.868;25.320;2023-05-14T01:56:01;6.23;;;3.50;;
20038;SDS011;21737;42.868;25.320;2023-05-14T01:59:02;5.80;;;2.90;;
20038;SDS011;21737;42.868;25.320;2023-05-14T02:02:04;3.50;;;2.50;;
20038;SDS011;21737;42.868;25.320;2023-05-14T02:05:06;5.53;;;2.97;;
20038;SDS011;21737;42.868;25.320;2023-05-14T02:08:08;3.70;;;2.93;;
20038;SDS011;21737;42.868;25.320;2023-05-14T02:11:09;4.10;;;2.70;;
20038;SDS011;21737;42.868;25.320;2023-05-14T02:14:11;6.30;;;3.20;;
20038;SDS011;21737;42.868;25.320;2023-05-14T02:17:13;5.53;;;2.73;;
20038;SDS011;21737;42.868;25.320;2023-05-14T02:20:18;4.70;;;2.87;;
20038;SDS011;21737;42.868;25.320;2023-05-14T02:23:19;5.13;;;2.53;;
20038;SDS011;21737;42.868;25.320;2023-05-14T02:26:34;3.90;;;2.73;;
20038;SDS011;21737;42.868;25.320;2023-05-14T02:29:36;6.50;;;2.60;;
20038;SDS011;21737;42.868;25.320;2023-05-14T02:32:38;3.20;;;2.53;;
20038;SDS011;21737;42.868;25.320;2023-05-14T02:35:39;3.63;;;2.50;;
20038;SDS011;21737;42.868;25.320;2023-05-14T02:38:41;3.43;;;2.37;;
20038;SDS011;21737;42.868;25.320;2023-05-14T02:41:43;8.13;;;3.17;;
20038;SDS011;21737;42.868;25.320;2023-05-14T02:44:44;7.80;;;2.70;;
20038;SDS011;21737;42.868;25.320;2023-05-14T02:47:46;4.07;;;2.70;;
20038;SDS011;21737;42.868;25.320;2023-05-14T02:50:49;3.20;;;2.20;;
20038;SDS011;21737;42.868;25.320;2023-05-14T02:53:52;3.30;;;2.67;;
20038;SDS011;21737;42.868;25.320;2023-05-14T02:56:54;4.03;;;2.60;;
20038;SDS011;21737;42.868;25.320;2023-05-14T02:59:55;4.50;;;2.67;;
20038;SDS011;21737;42.868;25.320;2023-05-14T03:02:57;7.20;;;2.80;;
20038;SDS011;21737;42.868;25.320;2023-05-14T03:06:00;4.83;;;2.70;;
20038;SDS011;21737;42.868;25.320;2023-05-14T03:09:01;4.43;;;2.87;;
20038;SDS011;21737;42.868;25.320;2023-05-14T03:12:03;6.90;;;3.23;;
20038;SDS011;21737;42.868;25.320;2023-05-14T03:15:05;4.67;;;3.33;;
20038;SDS011;21737;42.868;25.320;2023-05-14T03:18:07;5.87;;;3.40;;
20038;SDS011;21737;42.868;25.320;2023-05-14T03:21:09;3.70;;;2.90;;
20038;SDS011;21737;42.868;25.320;2023-05-14T03:24:10;4.27;;;2.70;;
20038;SDS011;21737;42.868;25.320;2023-05-14T03:27:12;6.73;;;2.93;;
20038;SDS011;21737;42.868;25.320;2023-05-14T03:30:14;3.67;;;2.90;;
20038;SDS011;21737;42.868;25.320;2023-05-14T03:33:15;4.83;;;3.27;;
20038;SDS011;21737;42.868;25.320;2023-05-14T03:36:17;4.90;;;3.10;;
20038;SDS011;21737;42.868;25.320;2023-05-14T03:39:21;7.77;;;3.20;;
20038;SDS011;21737;42.868;25.320;2023-05-14T03:42:22;6.73;;;3.13;;
20038;SDS011;21737;42.868;25.320;2023-05-14T03:45:24;4.93;;;3.60;;
20038;SDS011;21737;42.868;25.320;2023-05-14T03:48:27;7.50;;;3.83;;
20038;SDS011;21737;42.868;25.320;2023-05-14T03:51:29;6.13;;;3.43;;
20038;SDS011;21737;42.868;25.320;2023-05-14T03:54:32;6.43;;;3.40;;
20038;SDS011;21737;42.868;25.320;2023-05-14T03:57:33;4.30;;;3.17;;
20038;SDS011;21737;42.868;25.320;2023-05-14T04:00:36;7.17;;;3.57;;
20038;SDS011;21737;42.868;25.320;2023-05-14T04:03:39;7.33;;;3.50;;
20038;SDS011;21737;42.868;25.320;2023-05-14T04:06:42;5.97;;;3.87;;
20038;SDS011;21737;42.868;25.320;2023-05-14T04:09:43;5.87;;;3.80;;
20038;SDS011;21737;42.868;25.320;2023-05-14T04:12:45;5.50;;;3.70;;
20038;SDS011;21737;42.868;25.320;2023-05-14T04:15:50;7.20;;;3.27;;
20038;SDS011;21737;42.868;25.320;2023-05-14T04:18:54;7.67;;;3.53;;
20038;SDS011;21737;42.868;25.320;2023-05-14T04:21:56;6.00;;;3.53;;
20038;SDS011;21737;42.868;25.320;2023-05-14T04:24:58;7.90;;;3.77;;
20038;SDS011;21737;42.868;25.320;2023-05-14T04:28:00;6.30;;;3.23;;
20038;SDS011;21737;42.868;25.320;2023-05-14T04:31:01;4.20;;;3.10;;
20038;SDS011;21737;42.868;25.320;2023-05-14T04:34:04;8.70;;;3.90;;
20038;SDS011;21737;42.868;25.320;2023-05-14T04:37:05;7.53;;;3.33;;
20038;SDS011;21737;42.868;25.320;2023-05-14T04:40:07;4.23;;;3.40;;
20038;SDS011;21737;42.868;25.320;2023-05-14T04:43:10;7.77;;;3.40;;
20038;SDS011;21737;42.868;25.320;2023-05-14T04:46:12;8.93;;;3.23;;
20038;SDS011;21737;42.868;25.320;2023-05-14T04:49:14;13.33;;;3.57;;
20038;SDS011;21737;42.868;25.320;2023-05-14T04:52:16;7.47;;;3.60;;
20038;SDS011;21737;42.868;25.320;2023-05-14T04:55:17;5.53;;;3.60;;
20038;SDS011;21737;42.868;25.320;2023-05-14T04:58:19;6.17;;;3.20;;
20038;SDS011;21737;42.868;25.320;2023-05-14T05:01:20;4.20;;;2.40;;
20038;SDS011;21737;42.868;25.320;2023-05-14T05:04:23;5.60;;;3.20;;
20038;SDS011;21737;42.868;25.320;2023-05-14T05:07:26;6.47;;;3.10;;
20038;SDS011;21737;42.868;25.320;2023-05-14T05:10:28;7.90;;;3.60;;
20038;SDS011;21737;42.868;25.320;2023-05-14T05:13:29;5.60;;;3.87;;
20038;SDS011;21737;42.868;25.320;2023-05-14T05:16:32;5.40;;;3.77;;
20038;SDS011;21737;42.868;25.320;2023-05-14T05:19:34;5.27;;;3.77;;
20038;SDS011;21737;42.868;25.320;2023-05-14T05:22:44;6.10;;;3.37;;
20038;SDS011;21737;42.868;25.320;2023-05-14T05:25:45;5.30;;;3.10;;
20038;SDS011;21737;42.868;25.320;2023-05-14T05:28:47;6.53;;;2.50;;
20038;SDS011;21737;42.868;25.320;2023-05-14T05:31:49;3.77;;;2.50;;
20038;SDS011;21737;42.868;25.320;2023-05-14T05:34:51;3.53;;;2.10;;
20038;SDS011;21737;42.868;25.320;2023-05-14T05:37:52;5.37;;;2.60;;
20038;SDS011;21737;42.868;25.320;2023-05-14T05:40:54;2.60;;;2.30;;
20038;SDS011;21737;42.868;25.320;2023-05-14T05:43:56;4.03;;;2.67;;
20038;SDS011;21737;42.868;25.320;2023-05-14T05:46:57;7.00;;;2.70;;
20038;SDS011;21737;42.868;25.320;2023-05-14T05:49:59;3.87;;;2.40;;
20038;SDS011;21737;42.868;25.320;2023-05-14T05:53:01;6.40;;;2.87;;
20038;SDS011;21737;42.868;25.320;2023-05-14T05:56:03;3.30;;;2.53;;
20038;SDS011;21737;42.868;25.320;2023-05-14T05:59:04;5.73;;;2.80;;
20038;SDS011;21737;42.868;25.320;2023-05-14T06:02:06;5.97;;;2.53;;
20038;SDS011;21737;42.868;25.320;2023-05-14T06:05:08;5.40;;;2.30;;
20038;SDS011;21737;42.868;25.320;2023-05-14T06:08:10;7.00;;;2.60;;
20038;SDS011;21737;42.868;25.320;2023-05-14T06:11:12;4.70;;;2.60;;
20038;SDS011;21737;42.868;25.320;2023-05-14T06:14:14;4.30;;;2.60;;
20038;SDS011;21737;42.868;25.320;2023-05-14T06:17:15;6.20;;;3.07;;
20038;SDS011;21737;42.868;25.320;2023-05-14T06:20:17;7.50;;;2.60;;
20038;SDS011;21737;42.868;25.320;2023-05-14T06:23:19;5.90;;;2.67;;
20038;SDS011;21737;42.868;25.320;2023-05-14T06:26:21;3.33;;;2.40;;
20038;SDS011;21737;42.868;25.320;2023-05-14T06:29:22;5.37;;;3.03;;
20038;SDS011;21737;42.868;25.320;2023-05-14T06:32:24;3.53;;;2.90;;
20038;SDS011;21737;42.868;25.320;2023-05-14T06:35:25;5.60;;;2.80;;
20038;SDS011;21737;42.868;25.320;2023-05-14T06:38:27;4.30;;;2.40;;
20038;SDS011;21737;42.868;25.320;2023-05-14T06:41:29;5.20;;;2.70;;
20038;SDS011;21737;42.868;25.320;2023-05-14T06:44:31;7.07;;;3.07;;
20038;SDS011;21737;42.868;25.320;2023-05-14T06:47:35;8.90;;;2.60;;
20038;SDS011;21737;42.868;25.320;2023-05-14T06:50:37;4.73;;;2.60;;
20038;SDS011;21737;42.868;25.320;2023-05-14T06:53:47;3.40;;;2.67;;
20038;SDS011;21737;42.868;25.320;2023-05-14T06:56:49;3.03;;;2.30;;
20038;SDS011;21737;42.868;25.320;2023-05-14T06:59:51;7.00;;;3.10;;
20038;SDS011;21737;42.868;25.320;2023-05-14T07:02:55;9.23;;;3.20;;
20038;SDS011;21737;42.868;25.320;2023-05-14T07:06:00;7.53;;;3.17;;
20038;SDS011;21737;42.868;25.320;2023-05-14T07:09:04;5.97;;;3.03;;
20038;SDS011;21737;42.868;25.320;2023-05-14T07:12:07;3.80;;;2.73;;
20038;SDS011;21737;42.868;25.320;2023-05-14T07:15:10;4.90;;;3.00;;
20038;SDS011;21737;42.868;25.320;2023-05-14T07:18:12;4.43;;;2.60;;
20038;SDS011;21737;42.868;25.320;2023-05-14T07:21:14;3.33;;;2.83;;
20038;SDS011;21737;42.868;25.320;2023-05-14T07:24:16;6.33;;;3.20;;
20038;SDS011;21737;42.868;25.320;2023-05-14T07:27:18;5.60;;;2.60;;
20038;SDS011;21737;42.868;25.320;2023-05-14T07:30:20;6.83;;;2.90;;
20038;SDS011;21737;42.868;25.320;2023-05-14T07:33:23;5.57;;;3.13;;
20038;SDS011;21737;42.868;25.320;2023-05-14T07:36:24;4.40;;;2.67;;
20038;SDS011;21737;42.868;25.320;2023-05-14T07:39:26;7.07;;;2.80;;
20038;SDS011;21737;42.868;25.320;2023-05-14T07:42:28;3.60;;;2.83;;
20038;SDS011;21737;42.868;25.320;2023-05-14T07:45:37;4.90;;;2.53;;
20038;SDS011;21737;42.868;25.320;2023-05-14T07:48:40;4.40;;;2.97;;
20038;SDS011;21737;42.868;25.320;2023-05-14T07:51:41;3.53;;;2.60;;
20038;SDS011;21737;42.868;25.320;2023-05-14T07:54:43;3.87;;;3.00;;
20038;SDS011;21737;42.868;25.320;2023-05-14T07:57:45;4.73;;;2.70;;
20038;SDS011;21737;42.868;25.320;2023-05-14T08:00:46;4.77;;;2.90;;
20038;SDS011;21737;42.868;25.320;2023-05-14T08:03:48;4.03;;;2.77;;
20038;SDS011;21737;42.868;25.320;2023-05-14T08:06:50;6.17;;;3.13;;
20038;SDS011;21737;42.868;25.320;2023-05-14T08:09:52;6.80;;;3.00;;
20038;SDS011;21737;42.868;25.320;2023-05-14T08:12:54;5.00;;;2.60;;
20038;SDS011;21737;42.868;25.320;2023-05-14T08:16:01;5.20;;;2.93;;
20038;SDS011;21737;42.868;25.320;2023-05-14T08:19:05;5.63;;;3.23;;
20038;SDS011;21737;42.868;25.320;2023-05-14T08:22:09;4.00;;;2.80;;
20038;SDS011;21737;42.868;25.320;2023-05-14T08:25:11;5.27;;;2.63;;
20038;SDS011;21737;42.868;25.320;2023-05-14T08:28:12;4.87;;;3.00;;
20038;SDS011;21737;42.868;25.320;2023-05-14T08:31:17;4.10;;;3.30;;
20038;SDS011;21737;42.868;25.320;2023-05-14T08:34:21;7.13;;;2.93;;
20038;SDS011;21737;42.868;25.320;2023-05-14T08:37:28;7.37;;;3.43;;
20038;SDS011;21737;42.868;25.320;2023-05-14T08:40:29;3.73;;;3.10;;
20038;SDS011;21737;42.868;25.320;2023-05-14T08:46:55;8.93;;;3.53;;
20038;SDS011;21737;42.868;25.320;2023-05-14T08:53:05;4.83;;;3.30;;
20038;SDS011;21737;42.868;25.320;2023-05-14T08:56:07;9.07;;;3.63;;
20038;SDS011;21737;42.868;25.320;2023-05-14T08:59:09;6.80;;;3.60;;
20038;SDS011;21737;42.868;25.320;2023-05-14T09:02:10;6.70;;;3.33;;
20038;SDS011;21737;42.868;25.320;2023-05-14T09:05:13;6.50;;;3.97;;
20038;SDS011;21737;42.868;25.320;2023-05-14T09:08:15;7.10;;;3.73;;
20038;SDS011;21737;42.868;25.320;2023-05-14T09:11:16;6.43;;;3.90;;
20038;SDS011;21737;42.868;25.320;2023-05-14T09:14:18;6.27;;;4.20;;
20038;SDS011;21737;42.868;25.320;2023-05-14T09:17:25;4.63;;;3.60;;
20038;SDS011;21737;42.868;25.320;2023-05-14T09:20:30;4.90;;;3.97;;
20038;SDS011;21737;42.868;25.320;2023-05-14T09:23:32;5.07;;;3.30;;
20038;SDS011;21737;42.868;25.320;2023-05-14T09:26:36;6.60;;;3.97;;
20038;SDS011;21737;42.868;25.320;2023-05-14T09:29:37;5.63;;;3.70;;
20038;SDS011;21737;42.868;25.320;2023-05-14T09:32:40;7.07;;;4.40;;
20038;SDS011;21737;42.868;25.320;2023-05-14T09:35:45;7.33;;;4.13;;
20038;SDS011;21737;42.868;25.320;2023-05-14T09:38:47;10.43;;;4.33;;
20038;SDS011;21737;42.868;25.320;2023-05-14T09:41:49;6.30;;;4.00;;
20038;SDS011;21737;42.868;25.320;2023-05-14T09:44:52;5.67;;;3.97;;
20038;SDS011;21737;42.868;25.320;2023-05-14T09:47:54;4.83;;;3.70;;
20038;SDS011;21737;42.868;25.320;2023-05-14T09:50:56;7.67;;;4.70;;
20038;SDS011;21737;42.868;25.320;2023-05-14T09:53:57;5.23;;;4.00;;
20038;SDS011;21737;42.868;25.320;2023-05-14T09:56:59;8.23;;;5.50;;
20038;SDS011;21737;42.868;25.320;2023-05-14T10:00:01;8.40;;;4.70;;
20038;SDS011;21737;42.868;25.320;2023-05-14T10:03:06;7.57;;;4.50;;
20038;SDS011;21737;42.868;25.320;2023-05-14T10:06:08;6.50;;;4.20;;
20038;SDS011;21737;42.868;25.320;2023-05-14T10:09:13;6.20;;;4.23;;
20038;SDS011;21737;42.868;25.320;2023-05-14T10:12:18;5.40;;;4.37;;
20038;SDS011;21737;42.868;25.320;2023-05-14T10:16:05;6.60;;;4.37;;
20038;SDS011;21737;42.868;25.320;2023-05-14T10:18:49;6.97;;;4.37;;
20038;SDS011;21737;42.868;25.320;2023-05-14T10:21:54;5.13;;;4.07;;
20038;SDS011;21737;42.868;25.320;2023-05-14T10:24:56;5.97;;;4.80;;
20038;SDS011;21737;42.868;25.320;2023-05-14T10:27:58;6.93;;;4.07;;
20038;SDS011;21737;42.868;25.320;2023-05-14T10:31:00;5.93;;;3.80;;
20038;SDS011;21737;42.868;25.320;2023-05-14T10:34:04;5.70;;;4.00;;
20038;SDS011;21737;42.868;25.320;2023-05-14T10:37:26;7.50;;;3.93;;
20038;SDS011;21737;42.868;25.320;2023-05-14T10:40:28;5.00;;;4.30;;
20038;SDS011;21737;42.868;25.320;2023-05-14T10:43:30;5.03;;;3.73;;
20038;SDS011;21737;42.868;25.320;2023-05-14T10:46:35;5.00;;;3.57;;
20038;SDS011;21737;42.868;25.320;2023-05-14T10:49:37;5.67;;;3.57;;
20038;SDS011;21737;42.868;25.320;2023-05-14T10:52:44;3.83;;;3.43;;
20038;SDS011;21737;42.868;25.320;2023-05-14T10:55:49;5.17;;;3.50;;
20038;SDS011;21737;42.868;25.320;2023-05-14T10:58:56;5.20;;;3.30;;
20038;SDS011;21737;42.868;25.320;2023-05-14T11:01:58;4.33;;;3.80;;
20038;SDS011;21737;42.868;25.320;2023-05-14T11:05:01;6.37;;;3.40;;
20038;SDS011;21737;42.868;25.320;2023-05-14T11:08:04;4.37;;;3.53;;
20038;SDS011;21737;42.868;25.320;2023-05-14T11:11:08;5.23;;;3.43;;
20038;SDS011;21737;42.868;25.320;2023-05-14T11:14:10;5.53;;;3.37;;
20038;SDS011;21737;42.868;25.320;2023-05-14T11:17:12;5.90;;;4.00;;
20038;SDS011;21737;42.868;25.320;2023-05-14T11:20:15;6.07;;;3.37;;
20038;SDS011;21737;42.868;25.320;2023-05-14T11:23:17;3.23;;;2.93;;
20038;SDS011;21737;42.868;25.320;2023-05-14T11:26:18;4.23;;;3.43;;
20038;SDS011;21737;42.868;25.320;2023-05-14T11:29:22;6.27;;;3.70;;
20038;SDS011;21737;42.868;25.320;2023-05-14T11:32:24;4.10;;;3.33;;
20038;SDS011;21737;42.868;25.320;2023-05-14T11:35:26;8.27;;;3.70;;
20038;SDS011;21737;42.868;25.320;2023-05-14T11:38:28;5.20;;;3.87;;
20038;SDS011;21737;42.868;25.320;2023-05-14T11:41:30;5.00;;;3.60;;
20038;SDS011;21737;42.868;25.320;2023-05-14T11:44:32;4.30;;;3.80;;
20038;SDS011;21737;42.868;25.320;2023-05-14T11:47:34;4.50;;;3.40;;
20038;SDS011;21737;42.868;25.320;2023-05-14T11:50:36;7.17;;;3.40;;
20038;SDS011;21737;42.868;25.320;2023-05-14T11:53:38;5.93;;;4.00;;
20038;SDS011;21737;42.868;25.320;2023-05-14T11:56:39;4.73;;;3.57;;
20038;SDS011;21737;42.868;25.320;2023-05-14T11:59:41;6.30;;;3.73;;
20038;SDS011;21737;42.868;25.320;2023-05-14T12:02:43;6.03;;;3.67;;
20038;SDS011;21737;42.868;25.320;2023-05-14T12:05:55;4.57;;;4.03;;
20038;SDS011;21737;42.868;25.320;2023-05-14T12:08:57;5.97;;;4.30;;
20038;SDS011;21737;42.868;25.320;2023-05-14T12:12:06;6.10;;;4.33;;
20038;SDS011;21737;42.868;25.320;2023-05-14T12:15:11;6.47;;;4.40;;
20038;SDS011;21737;42.868;25.320;2023-05-14T12:18:15;5.57;;;4.10;;
20038;SDS011;21737;42.868;25.320;2023-05-14T12:21:25;6.80;;;4.30;;
20038;SDS011;21737;42.868;25.320;2023-05-14T12:24:29;5.00;;;4.20;;
20038;SDS011;21737;42.868;25.320;2023-05-14T12:27:31;4.93;;;4.10;;
20038;SDS011;21737;42.868;25.320;2023-05-14T12:30:36;8.27;;;4.43;;
20038;SDS011;21737;42.868;25.320;2023-05-14T12:33:38;6.83;;;4.57;;
20038;SDS011;21737;42.868;25.320;2023-05-14T12:36:40;4.53;;;4.10;;
20038;SDS011;21737;42.868;25.320;2023-05-14T12:39:42;8.13;;;4.67;;
20038;SDS011;21737;42.868;25.320;2023-05-14T12:42:43;5.67;;;4.73;;
20038;SDS011;21737;42.868;25.320;2023-05-14T12:45:45;7.43;;;4.40;;
20038;SDS011;21737;42.868;25.320;2023-05-14T12:48:47;4.60;;;3.70;;
20038;SDS011;21737;42.868;25.320;2023-05-14T12:51:50;6.00;;;4.47;;
20038;SDS011;21737;42.868;25.320;2023-05-14T12:55:08;8.67;;;4.90;;
20038;SDS011;21737;42.868;25.320;2023-05-14T12:58:10;6.57;;;4.70;;
20038;SDS011;21737;42.868;25.320;2023-05-14T13:01:12;10.80;;;5.27;;
20038;SDS011;21737;42.868;25.320;2023-05-14T13:04:14;7.07;;;6.10;;
20038;SDS011;21737;42.868;25.320;2023-05-14T13:07:16;6.80;;;5.10;;
20038;SDS011;21737;42.868;25.320;2023-05-14T13:10:18;11.20;;;8.50;;
20038;SDS011;21737;42.868;25.320;2023-05-14T13:13:20;8.13;;;5.70;;
20038;SDS011;21737;42.868;25.320;2023-05-14T13:16:22;6.47;;;4.60;;
20038;SDS011;21737;42.868;25.320;2023-05-14T13:19:23;7.30;;;4.60;;
20038;SDS011;21737;42.868;25.320;2023-05-14T13:22:25;6.20;;;4.50;;
20038;SDS011;21737;42.868;25.320;2023-05-14T13:25:27;5.23;;;3.43;;
20038;SDS011;21737;42.868;25.320;2023-05-14T13:28:29;4.40;;;3.60;;
20038;SDS011;21737;42.868;25.320;2023-05-14T13:31:30;7.90;;;4.00;;
20038;SDS011;21737;42.868;25.320;2023-05-14T13:34:32;4.97;;;4.23;;
20038;SDS011;21737;42.868;25.320;2023-05-14T13:37:34;4.13;;;3.73;;
20038;SDS011;21737;42.868;25.320;2023-05-14T13:40:36;5.90;;;3.60;;
20038;SDS011;21737;42.868;25.320;2023-05-14T13:43:38;8.73;;;4.13;;
20038;SDS011;21737;42.868;25.320;2023-05-14T13:46:40;4.77;;;3.90;;
20038;SDS011;21737;42.868;25.320;2023-05-14T13:49:42;6.13;;;4.20;;
20038;SDS011;21737;42.868;25.320;2023-05-14T13:52:44;5.83;;;3.63;;
20038;SDS011;21737;42.868;25.320;2023-05-14T13:55:46;5.37;;;4.20;;
20038;SDS011;21737;42.868;25.320;2023-05-14T13:58:50;4.63;;;3.90;;
20038;SDS011;21737;42.868;25.320;2023-05-14T14:01:51;4.83;;;3.57;;
20038;SDS011;21737;42.868;25.320;2023-05-14T14:04:53;5.87;;;4.17;;
20038;SDS011;21737;42.868;25.320;2023-05-14T14:07:55;7.07;;;4.60;;
20038;SDS011;21737;42.868;25.320;2023-05-14T14:11:08;5.80;;;4.57;;
20038;SDS011;21737;42.868;25.320;2023-05-14T14:14:10;8.10;;;5.90;;
20038;SDS011;21737;42.868;25.320;2023-05-14T14:17:12;5.50;;;4.63;;
20038;SDS011;21737;42.868;25.320;2023-05-14T14:20:13;6.67;;;5.60;;
20038;SDS011;21737;42.868;25.320;2023-05-14T14:23:15;5.70;;;4.83;;
20038;SDS011;21737;42.868;25.320;2023-05-14T14:26:17;6.67;;;5.53;;
20038;SDS011;21737;42.868;25.320;2023-05-14T14:29:19;6.10;;;5.10;;
20038;SDS011;21737;42.868;25.320;2023-05-14T14:32:22;8.07;;;5.30;;
20038;SDS011;21737;42.868;25.320;2023-05-14T14:35:24;9.40;;;6.13;;
20038;SDS011;21737;42.868;25.320;2023-05-14T14:38:26;6.20;;;4.90;;
20038;SDS011;21737;42.868;25.320;2023-05-14T14:41:28;6.87;;;4.80;;
20038;SDS011;21737;42.868;25.320;2023-05-14T14:44:30;7.83;;;5.10;;
20038;SDS011;21737;42.868;25.320;2023-05-14T14:47:32;5.40;;;4.90;;
20038;SDS011;21737;42.868;25.320;2023-05-14T14:50:34;7.00;;;4.97;;
20038;SDS011;21737;42.868;25.320;2023-05-14T14:53:36;6.80;;;5.10;;
20038;SDS011;21737;42.868;25.320;2023-05-14T14:56:37;7.90;;;5.03;;
20038;SDS011;21737;42.868;25.320;2023-05-14T14:59:39;6.93;;;4.83;;
20038;SDS011;21737;42.868;25.320;2023-05-14T15:02:42;5.33;;;4.73;;
20038;SDS011;21737;42.868;25.320;2023-05-14T15:05:44;7.73;;;4.50;;
20038;SDS011;21737;42.868;25.320;2023-05-14T15:08:46;10.43;;;4.97;;
20038;SDS011;21737;42.868;25.320;2023-05-14T15:11:48;7.60;;;5.37;;
20038;SDS011;21737;42.868;25.320;2023-05-14T15:14:50;7.00;;;4.83;;
20038;SDS011;21737;42.868;25.320;2023-05-14T15:17:51;5.17;;;3.43;;
20038;SDS011;21737;42.868;25.320;2023-05-14T15:20:54;5.70;;;4.07;;
20038;SDS011;21737;42.868;25.320;2023-05-14T15:23:56;7.70;;;4.37;;
20038;SDS011;21737;42.868;25.320;2023-05-14T15:26:57;7.17;;;4.93;;
20038;SDS011;21737;42.868;25.320;2023-05-14T15:29:59;7.87;;;4.57;;
20038;SDS011;21737;42.868;25.320;2023-05-14T15:33:01;6.50;;;4.90;;
20038;SDS011;21737;42.868;25.320;2023-05-14T15:36:03;6.33;;;4.27;;
20038;SDS011;21737;42.868;25.320;2023-05-14T15:39:05;5.70;;;4.33;;
20038;SDS011;21737;42.868;25.320;2023-05-14T15:42:06;5.73;;;4.63;;
20038;SDS011;21737;42.868;25.320;2023-05-14T15:45:09;5.20;;;4.47;;
20038;SDS011;21737;42.868;25.320;2023-05-14T15:48:11;5.93;;;4.03;;
20038;SDS011;21737;42.868;25.320;2023-05-14T15:51:12;6.70;;;4.30;;
20038;SDS011;21737;42.868;25.320;2023-05-14T15:54:14;5.63;;;4.50;;
20038;SDS011;21737;42.868;25.320;2023-05-14T15:57:16;6.23;;;5.10;;
20038;SDS011;21737;42.868;25.320;2023-05-14T16:00:20;5.23;;;3.93;;
20038;SDS011;21737;42.868;25.320;2023-05-14T16:03:22;5.40;;;3.77;;
20038;SDS011;21737;42.868;25.320;2023-05-14T16:06:24;5.63;;;4.57;;
20038;SDS011;21737;42.868;25.320;2023-05-14T16:09:26;6.70;;;4.37;;
20038;SDS011;21737;42.868;25.320;2023-05-14T16:12:27;7.90;;;4.27;;
20038;SDS011;21737;42.868;25.320;2023-05-14T16:15:29;5.87;;;4.00;;
20038;SDS011;21737;42.868;25.320;2023-05-14T16:18:31;5.37;;;4.50;;
20038;SDS011;21737;42.868;25.320;2023-05-14T16:21:33;9.33;;;5.07;;
20038;SDS011;21737;42.868;25.320;2023-05-14T16:24:35;7.90;;;4.60;;
20038;SDS011;21737;42.868;25.320;2023-05-14T16:27:36;7.27;;;4.80;;
20038;SDS011;21737;42.868;25.320;2023-05-14T16:30:38;5.03;;;3.90;;
20038;SDS011;21737;42.868;25.320;2023-05-14T16:33:40;7.20;;;4.60;;
20038;SDS011;21737;42.868;25.320;2023-05-14T16:36:41;6.33;;;4.33;;
20038;SDS011;21737;42.868;25.320;2023-05-14T16:39:43;5.80;;;4.90;;
20038;SDS011;21737;42.868;25.320;2023-05-14T16:42:45;6.63;;;4.47;;
20038;SDS011;21737;42.868;25.320;2023-05-14T16:45:49;6.47;;;3.90;;
20038;SDS011;21737;42.868;25.320;2023-05-14T16:48:51;4.13;;;3.50;;
20038;SDS011;21737;42.868;25.320;2023-05-14T16:51:52;7.90;;;4.37;;
20038;SDS011;21737;42.868;25.320;2023-05-14T16:54:54;7.60;;;4.47;;
20038;SDS011;21737;42.868;25.320;2023-05-14T16:57:56;6.10;;;4.43;;
20038;SDS011;21737;42.868;25.320;2023-05-14T17:00:57;5.97;;;4.60;;
20038;SDS011;21737;42.868;25.320;2023-05-14T17:03:59;7.73;;;5.00;;
20038;SDS011;21737;42.868;25.320;2023-05-14T17:07:01;5.73;;;4.13;;
20038;SDS011;21737;42.868;25.320;2023-05-14T17:10:04;8.57;;;4.73;;
20038;SDS011;21737;42.868;25.320;2023-05-14T17:13:06;7.03;;;5.00;;
20038;SDS011;21737;42.868;25.320;2023-05-14T17:16:07;9.27;;;5.60;;
20038;SDS011;21737;42.868;25.320;2023-05-14T17:19:09;7.00;;;5.10;;
20038;SDS011;21737;42.868;25.320;2023-05-14T17:22:11;8.57;;;5.83;;
20038;SDS011;21737;42.868;25.320;2023-05-14T17:25:14;7.97;;;4.80;;
20038;SDS011;21737;42.868;25.320;2023-05-14T17:28:16;9.00;;;5.10;;
20038;SDS011;21737;42.868;25.320;2023-05-14T17:31:17;6.23;;;4.77;;
20038;SDS011;21737;42.868;25.320;2023-05-14T17:34:19;11.00;;;4.77;;
20038;SDS011;21737;42.868;25.320;2023-05-14T17:37:24;9.67;;;4.63;;
20038;SDS011;21737;42.868;25.320;2023-05-14T17:40:26;4.70;;;4.00;;
20038;SDS011;21737;42.868;25.320;2023-05-14T17:43:28;6.10;;;4.60;;
20038;SDS011;21737;42.868;25.320;2023-05-14T17:46:30;6.47;;;3.70;;
20038;SDS011;21737;42.868;25.320;2023-05-14T17:49:31;7.10;;;4.50;;
20038;SDS011;21737;42.868;25.320;2023-05-14T17:52:33;8.67;;;4.80;;
20038;SDS011;21737;42.868;25.320;2023-05-14T17:55:35;7.00;;;4.60;;
20038;SDS011;21737;42.868;25.320;2023-05-14T17:58:44;6.20;;;4.43;;
20038;SDS011;21737;42.868;25.320;2023-05-14T18:01:45;7.87;;;4.90;;
20038;SDS011;21737;42.868;25.320;2023-05-14T18:04:47;10.87;;;4.23;;
20038;SDS011;21737;42.868;25.320;2023-05-14T18:07:48;6.97;;;3.87;;